createdAt,value
2022-08-26T00:00:12.355Z,20.37
2022-08-26T00:02:42.908Z,20.33
2022-08-26T00:05:10.783Z,20.31
2022-08-26T00:07:38.847Z,20.31
2022-08-26T00:10:08.324Z,20.20
2022-08-26T00:12:37.787Z,20.15
2022-08-26T00:15:11.098Z,20.10
2022-08-26T00:17:40.380Z,20.05
2022-08-26T00:20:10.729Z,20.05
2022-08-26T00:22:38.670Z,20.03
2022-08-26T00:25:08.034Z,19.97
2022-08-26T00:27:36.831Z,19.95
2022-08-26T00:30:11.505Z,19.89
2022-08-26T00:32:39.218Z,19.85
2022-08-26T00:35:09.042Z,19.83
2022-08-26T00:37:36.833Z,19.80
2022-08-26T00:40:06.018Z,19.78
2022-08-26T00:42:33.813Z,19.78
2022-08-26T00:45:02.351Z,19.75
2022-08-26T00:47:44.860Z,19.77
2022-08-26T00:50:26.961Z,19.77
2022-08-26T00:52:56.465Z,19.71
2022-08-26T00:55:37.765Z,19.61
2022-08-26T00:58:07.591Z,19.59
2022-08-26T01:00:35.944Z,19.59
2022-08-26T01:03:05.566Z,19.60
2022-08-26T01:05:40.151Z,19.58
2022-08-26T01:08:07.846Z,19.59
2022-08-26T01:10:36.435Z,19.60
2022-08-26T01:13:09.941Z,19.60
2022-08-26T01:15:44.208Z,19.59
2022-08-26T01:18:14.593Z,19.57
2022-08-26T01:20:57.787Z,19.57
2022-08-26T01:23:28.495Z,19.54
2022-08-26T01:26:00.588Z,19.49
2022-08-26T01:28:32.470Z,19.43
2022-08-26T01:31:02.436Z,19.40
2022-08-26T01:33:42.021Z,19.35
2022-08-26T01:36:10.745Z,19.37
2022-08-26T01:38:39.948Z,19.31
2022-08-26T01:41:16.130Z,19.30
2022-08-26T01:43:52.002Z,19.27
2022-08-26T01:46:21.241Z,19.26
2022-08-26T01:48:52.392Z,19.26
2022-08-26T01:51:24.828Z,19.25
2022-08-26T01:53:54.118Z,19.24
2022-08-26T01:56:23.287Z,19.22
2022-08-26T01:58:53.367Z,19.21
2022-08-26T02:01:22.581Z,19.21
2022-08-26T02:04:04.205Z,19.22
2022-08-26T02:06:33.702Z,19.23
2022-08-26T02:09:06.015Z,19.27
2022-08-26T02:11:36.853Z,19.29
2022-08-26T02:14:09.885Z,19.30
2022-08-26T02:16:42.451Z,19.32
2022-08-26T02:19:16.860Z,19.33
2022-08-26T02:21:46.240Z,19.30
2022-08-26T02:24:22.995Z,19.21
2022-08-26T02:26:52.702Z,19.08
2022-08-26T02:29:26.023Z,19.04
2022-08-26T02:31:55.671Z,18.91
2022-08-26T02:34:31.091Z,18.82
2022-08-26T02:37:00.602Z,18.73
2022-08-26T02:39:31.831Z,18.66
2022-08-26T02:42:00.129Z,18.44
2022-08-26T02:44:28.400Z,18.44
2022-08-26T02:46:56.709Z,18.51
2022-08-26T02:49:25.803Z,18.45
2022-08-26T02:51:53.959Z,18.38
2022-08-26T02:54:22.814Z,18.41
2022-08-26T02:56:52.799Z,18.44
2022-08-26T02:59:20.519Z,18.39
2022-08-26T03:01:56.144Z,18.25
2022-08-26T03:04:25.678Z,17.95
2022-08-26T03:06:55.460Z,17.70
2022-08-26T03:09:23.679Z,17.78
2022-08-26T03:11:55.285Z,17.75
2022-08-26T03:14:23.901Z,17.77
2022-08-26T03:16:53.960Z,17.80
2022-08-26T03:19:23.051Z,17.82
2022-08-26T03:21:51.238Z,17.90
2022-08-26T03:24:20.937Z,17.94
2022-08-26T03:26:52.469Z,17.87
2022-08-26T03:29:39.943Z,17.90
2022-08-26T03:32:08.248Z,17.59
2022-08-26T03:34:36.055Z,17.60
2022-08-26T03:37:04.040Z,17.63
2022-08-26T03:39:31.869Z,17.60
2022-08-26T03:42:00.694Z,17.66
2022-08-26T03:44:29.870Z,17.69
2022-08-26T03:46:58.248Z,17.73
2022-08-26T03:49:26.453Z,17.78
2022-08-26T03:51:57.386Z,17.81
2022-08-26T03:54:25.022Z,17.82
2022-08-26T03:56:54.292Z,17.84
2022-08-26T03:59:21.939Z,17.89
2022-08-26T04:01:52.318Z,17.88
2022-08-26T04:04:22.821Z,17.88
2022-08-26T04:06:58.207Z,17.90
2022-08-26T04:09:26.513Z,17.92
2022-08-26T04:11:55.342Z,17.90
2022-08-26T04:14:26.982Z,17.90
2022-08-26T04:16:57.128Z,17.90
2022-08-26T04:19:26.120Z,17.88
2022-08-26T04:21:55.163Z,17.77
2022-08-26T04:24:25.147Z,17.70
2022-08-26T04:26:53.805Z,17.70
2022-08-26T04:29:24.544Z,17.66
2022-08-26T04:31:55.516Z,17.71
2022-08-26T04:34:27.253Z,17.80
2022-08-26T04:36:58.171Z,17.78
2022-08-26T04:39:27.763Z,17.68
2022-08-26T04:41:57.639Z,17.63
2022-08-26T04:44:27.392Z,17.67
2022-08-26T04:46:56.553Z,17.70
2022-08-26T04:49:26.135Z,17.77
2022-08-26T04:51:55.944Z,17.83
2022-08-26T04:54:23.757Z,17.90
2022-08-26T04:56:53.075Z,17.89
2022-08-26T04:59:20.759Z,17.91
2022-08-26T05:01:51.590Z,17.90
2022-08-26T05:04:21.375Z,17.97
2022-08-26T05:06:52.134Z,18.04
2022-08-26T05:09:21.073Z,18.10
2022-08-26T05:11:52.069Z,18.18
2022-08-26T05:14:20.752Z,18.27
2022-08-26T05:16:49.357Z,18.35
2022-08-26T05:19:18.934Z,18.46
2022-08-26T05:21:48.382Z,18.47
2022-08-26T05:24:18.329Z,18.52
2022-08-26T05:26:48.120Z,18.57
2022-08-26T05:29:16.071Z,18.62
2022-08-26T05:31:45.205Z,18.63
2022-08-26T05:34:12.875Z,18.65
2022-08-26T05:36:41.379Z,18.72
2022-08-26T05:39:10.658Z,18.80
2022-08-26T05:41:43.019Z,18.83
2022-08-26T05:44:18.910Z,18.90
2022-08-26T05:46:47.153Z,18.98
2022-08-26T05:49:16.500Z,19.09
2022-08-26T05:51:47.649Z,19.01
2022-08-26T05:54:22.111Z,18.98
2022-08-26T05:56:52.309Z,18.99
2022-08-26T05:59:24.389Z,19.02
2022-08-26T06:01:53.010Z,19.05
2022-08-26T06:04:20.786Z,19.16
2022-08-26T06:06:48.635Z,19.16
2022-08-26T06:09:17.481Z,19.23
2022-08-26T06:11:46.059Z,19.24
2022-08-26T06:14:15.047Z,19.40
2022-08-26T06:16:45.096Z,19.53
2022-08-26T06:19:15.085Z,19.68
2022-08-26T06:21:45.983Z,19.83
2022-08-26T06:24:32.878Z,19.92
2022-08-26T06:27:03.175Z,20.03
2022-08-26T06:29:34.936Z,20.15
2022-08-26T06:32:04.835Z,20.26
2022-08-26T06:34:32.710Z,20.33
2022-08-26T06:37:03.501Z,20.45
2022-08-26T06:39:31.891Z,20.49
2022-08-26T06:41:59.990Z,20.59
2022-08-26T06:44:28.121Z,20.71
2022-08-26T06:46:57.523Z,20.88
2022-08-26T06:49:26.940Z,21.01
2022-08-26T06:51:56.452Z,21.08
2022-08-26T06:54:24.095Z,21.23
2022-08-26T06:56:52.620Z,21.38
2022-08-26T06:59:21.017Z,21.52
2022-08-26T07:01:48.796Z,21.72
2022-08-26T07:04:21.916Z,21.89
2022-08-26T07:06:54.774Z,21.99
2022-08-26T07:09:23.647Z,22.21
2022-08-26T07:11:52.908Z,22.35
2022-08-26T07:14:21.415Z,22.42
2022-08-26T07:16:50.693Z,22.59
2022-08-26T07:19:30.281Z,22.66
2022-08-26T07:21:59.667Z,22.84
2022-08-26T07:24:29.086Z,22.94
2022-08-26T07:27:00.704Z,23.17
2022-08-26T07:29:29.221Z,23.38
2022-08-26T07:31:56.965Z,23.45
2022-08-26T07:34:27.242Z,23.55
2022-08-26T07:36:55.493Z,23.55
2022-08-26T07:39:24.442Z,23.64
2022-08-26T07:41:52.747Z,23.62
2022-08-26T07:44:21.007Z,23.62
2022-08-26T07:46:53.058Z,23.74
2022-08-26T07:49:22.219Z,24.04
2022-08-26T07:51:52.262Z,24.30
2022-08-26T07:54:20.318Z,24.57
2022-08-26T07:56:54.849Z,24.80
2022-08-26T07:59:24.871Z,24.93
2022-08-26T08:01:53.379Z,24.98
2022-08-26T08:04:26.065Z,25.04
2022-08-26T08:06:56.614Z,25.09
2022-08-26T08:09:24.893Z,25.19
2022-08-26T08:11:53.861Z,25.19
2022-08-26T08:14:22.169Z,25.27
2022-08-26T08:16:53.592Z,25.40
2022-08-26T08:19:23.067Z,25.53
2022-08-26T08:21:51.654Z,25.56
2022-08-26T08:24:21.933Z,25.57
2022-08-26T08:26:50.407Z,25.51
2022-08-26T08:29:18.485Z,25.51
2022-08-26T08:31:58.273Z,25.50
2022-08-26T08:34:27.894Z,25.52
2022-08-26T08:36:55.762Z,25.54
2022-08-26T08:39:26.256Z,25.53
2022-08-26T08:42:09.140Z,25.41
2022-08-26T08:44:41.493Z,25.39
2022-08-26T08:47:18.610Z,25.44
2022-08-26T08:49:48.572Z,25.49
2022-08-26T08:52:29.202Z,25.47
2022-08-26T08:54:58.282Z,25.48
2022-08-26T08:57:37.670Z,25.55
2022-08-26T09:00:12.347Z,25.63
2022-08-26T09:02:47.972Z,25.68
2022-08-26T09:05:22.741Z,25.75
2022-08-26T09:07:56.550Z,25.75
2022-08-26T09:10:35.120Z,25.74
2022-08-26T09:13:05.793Z,25.79
2022-08-26T09:15:43.651Z,25.80
2022-08-26T09:18:25.245Z,25.90
2022-08-26T09:20:57.656Z,25.98
2022-08-26T09:23:26.772Z,26.09
2022-08-26T09:26:01.401Z,26.18
2022-08-26T09:28:31.820Z,26.30
2022-08-26T09:31:07.917Z,26.34
2022-08-26T09:33:39.599Z,26.44
2022-08-26T09:36:16.915Z,26.53
2022-08-26T09:38:46.454Z,26.59
2022-08-26T09:41:27.867Z,26.65
2022-08-26T09:44:22.938Z,26.86
2022-08-26T09:46:56.539Z,27.09
2022-08-26T09:49:35.611Z,27.36
2022-08-26T09:52:07.171Z,27.62
2022-08-26T09:54:36.379Z,27.85
2022-08-26T09:57:26.418Z,28.01
2022-08-26T09:59:54.221Z,28.33
2022-08-26T10:02:37.663Z,28.98
2022-08-26T10:05:10.584Z,29.56
2022-08-26T10:07:44.179Z,30.14
2022-08-26T10:10:17.846Z,30.38
2022-08-26T10:12:59.858Z,30.76
2022-08-26T10:15:29.098Z,30.95
2022-08-26T10:18:05.748Z,30.98
2022-08-26T10:20:37.224Z,31.12
2022-08-26T10:23:12.189Z,31.18
2022-08-26T10:25:49.631Z,31.22
2022-08-26T10:28:27.950Z,31.36
2022-08-26T10:31:02.130Z,31.81
2022-08-26T10:33:30.362Z,32.14
2022-08-26T10:36:00.422Z,32.32
2022-08-26T10:38:34.269Z,32.64
2022-08-26T10:41:10.471Z,32.60
2022-08-26T10:43:43.954Z,32.93
2022-08-26T10:46:17.159Z,33.13
2022-08-26T10:48:50.294Z,33.37
2022-08-26T10:51:24.857Z,33.17
2022-08-26T10:53:57.837Z,33.02
2022-08-26T10:56:44.413Z,32.90
2022-08-26T10:59:22.620Z,33.04
2022-08-26T11:01:58.823Z,33.10
2022-08-26T11:04:45.625Z,32.73
2022-08-26T11:07:36.202Z,32.67
2022-08-26T11:10:08.025Z,32.56
2022-08-26T11:12:56.739Z,32.30
2022-08-26T11:16:10.393Z,32.15
2022-08-26T11:18:45.437Z,32.94
2022-08-26T11:21:50.799Z,33.22
2022-08-26T11:25:11.504Z,33.19
2022-08-26T11:27:55.304Z,33.12
2022-08-26T11:30:57.760Z,32.73
2022-08-26T11:33:59.414Z,32.81
2022-08-26T11:36:40.571Z,32.67
2022-08-26T11:39:19.995Z,32.32
2022-08-26T11:41:52.835Z,32.41
2022-08-26T11:44:23.259Z,32.21
2022-08-26T11:46:57.571Z,30.79
2022-08-26T11:49:28.240Z,30.35
2022-08-26T11:52:11.240Z,30.75
2022-08-26T11:54:39.918Z,30.82
2022-08-26T11:57:13.431Z,30.41
2022-08-26T11:59:43.714Z,30.53
2022-08-26T12:02:18.186Z,30.83
2022-08-26T12:04:51.790Z,30.88
2022-08-26T12:07:24.877Z,30.82
2022-08-26T12:09:57.216Z,30.89
2022-08-26T12:12:34.800Z,31.06
2022-08-26T12:15:13.763Z,31.21
2022-08-26T12:17:42.871Z,31.20
2022-08-26T12:20:48.756Z,31.05
2022-08-26T12:23:25.092Z,30.85
2022-08-26T12:26:05.073Z,30.75
2022-08-26T12:28:33.117Z,30.88
2022-08-26T12:31:03.501Z,30.94
2022-08-26T12:33:33.898Z,31.01
2022-08-26T12:36:04.873Z,30.39
2022-08-26T12:38:34.992Z,30.13
2022-08-26T12:41:03.419Z,30.15
2022-08-26T12:43:41.183Z,29.78
2022-08-26T12:46:11.561Z,29.87
2022-08-26T12:48:42.628Z,30.06
2022-08-26T12:51:28.229Z,30.13
2022-08-26T12:53:56.447Z,30.32
2022-08-26T12:56:32.391Z,30.42
2022-08-26T12:59:12.181Z,30.46
2022-08-26T13:01:44.573Z,29.95
2022-08-26T13:04:34.743Z,29.88
2022-08-26T13:07:22.903Z,29.59
2022-08-26T13:09:52.302Z,29.39
2022-08-26T13:12:32.251Z,29.23
2022-08-26T13:15:01.595Z,29.56
2022-08-26T13:17:30.571Z,29.22
2022-08-26T13:20:03.573Z,29.04
2022-08-26T13:22:33.653Z,29.37
2022-08-26T13:25:01.361Z,29.33
2022-08-26T13:27:29.106Z,29.43
2022-08-26T13:29:57.793Z,29.64
2022-08-26T13:32:27.265Z,29.34
2022-08-26T13:34:56.352Z,29.16
2022-08-26T13:37:29.330Z,29.60
2022-08-26T13:40:06.206Z,29.06
2022-08-26T13:42:34.501Z,29.11
2022-08-26T13:45:02.490Z,28.80
2022-08-26T13:47:30.680Z,28.55
2022-08-26T13:49:58.658Z,29.05
2022-08-26T13:52:30.619Z,29.20
2022-08-26T13:55:00.083Z,29.41
2022-08-26T13:57:30.615Z,29.52
2022-08-26T13:59:59.208Z,29.33
2022-08-26T14:02:29.071Z,29.15
2022-08-26T14:04:56.744Z,29.04
2022-08-26T14:07:25.023Z,29.34
2022-08-26T14:09:52.742Z,29.48
2022-08-26T14:12:20.607Z,29.75
2022-08-26T14:14:49.681Z,29.51
2022-08-26T14:17:22.559Z,29.14
2022-08-26T14:19:51.762Z,29.31
2022-08-26T14:22:22.278Z,29.24
2022-08-26T14:24:50.918Z,29.79
2022-08-26T14:27:18.617Z,29.46
2022-08-26T14:29:46.327Z,29.66
2022-08-26T14:32:21.450Z,30.39
2022-08-26T14:34:50.775Z,30.67
2022-08-26T14:37:19.167Z,30.47
2022-08-26T14:39:46.952Z,30.48
2022-08-26T14:42:16.935Z,30.51
2022-08-26T14:44:46.968Z,30.30
2022-08-26T14:47:16.322Z,30.15
2022-08-26T14:49:44.019Z,30.12
2022-08-26T14:52:11.681Z,29.92
2022-08-26T14:54:38.355Z,30.00
2022-08-26T14:57:08.703Z,29.72
2022-08-26T14:59:38.983Z,29.60
2022-08-26T15:02:08.359Z,29.93
2022-08-26T15:04:37.531Z,30.14
2022-08-26T15:07:06.099Z,30.10
2022-08-26T15:09:35.614Z,30.10
2022-08-26T15:12:04.437Z,30.15
2022-08-26T15:14:33.106Z,29.35
2022-08-26T15:17:01.147Z,28.68
2022-08-26T15:19:29.211Z,28.71
2022-08-26T15:21:58.276Z,28.64
2022-08-26T15:24:28.806Z,29.19
2022-08-26T15:26:56.739Z,30.00
2022-08-26T15:29:24.757Z,30.79
2022-08-26T15:31:55.240Z,31.46
2022-08-26T15:34:25.195Z,32.15
2022-08-26T15:36:53.230Z,32.90
2022-08-26T15:39:22.286Z,33.37
2022-08-26T15:41:50.738Z,33.71
2022-08-26T15:44:19.147Z,33.84
2022-08-26T15:46:49.367Z,33.79
2022-08-26T15:49:18.707Z,33.77
2022-08-26T15:51:49.574Z,33.71
2022-08-26T15:54:19.570Z,33.39
2022-08-26T15:56:52.433Z,32.73
2022-08-26T15:59:22.294Z,32.47
2022-08-26T16:01:50.947Z,32.03
2022-08-26T16:04:18.993Z,31.11
2022-08-26T16:06:50.581Z,31.14
2022-08-26T16:09:19.422Z,30.86
2022-08-26T16:11:47.563Z,30.53
2022-08-26T16:14:16.990Z,30.23
2022-08-26T16:16:45.370Z,29.70
2022-08-26T16:19:13.027Z,29.55
2022-08-26T16:21:42.537Z,29.43
2022-08-26T16:24:10.693Z,29.29
2022-08-26T16:26:41.254Z,29.06
2022-08-26T16:29:11.376Z,28.87
2022-08-26T16:31:40.905Z,28.75
2022-08-26T16:34:09.292Z,28.77
2022-08-26T16:36:39.094Z,28.55
2022-08-26T16:39:08.283Z,28.53
2022-08-26T16:41:36.534Z,28.54
2022-08-26T16:44:05.645Z,28.47
2022-08-26T16:46:34.960Z,28.41
2022-08-26T16:49:04.671Z,28.18
2022-08-26T16:51:37.811Z,28.11
2022-08-26T16:54:07.046Z,28.08
2022-08-26T16:56:36.302Z,28.08
2022-08-26T16:59:05.149Z,27.94
2022-08-26T17:01:33.543Z,27.73
2022-08-26T17:04:01.265Z,27.57
2022-08-26T17:06:31.209Z,27.36
2022-08-26T17:08:58.837Z,27.07
2022-08-26T17:11:26.854Z,26.87
2022-08-26T17:13:54.495Z,27.00
2022-08-26T17:16:26.599Z,26.71
2022-08-26T17:18:56.163Z,26.54
2022-08-26T17:21:24.070Z,26.39
2022-08-26T17:23:53.509Z,26.51
2022-08-26T17:26:22.009Z,26.57
2022-08-26T17:28:50.047Z,26.63
2022-08-26T17:31:18.559Z,26.61
2022-08-26T17:33:48.982Z,26.62
2022-08-26T17:36:22.565Z,26.62
2022-08-26T17:38:50.384Z,26.60
2022-08-26T17:41:23.549Z,26.59
2022-08-26T17:43:51.203Z,26.50
2022-08-26T17:46:19.237Z,26.41
2022-08-26T17:48:47.793Z,26.35
2022-08-26T17:51:19.129Z,26.31
2022-08-26T17:53:47.890Z,26.27
2022-08-26T17:56:18.734Z,26.11
2022-08-26T17:58:51.129Z,25.96
2022-08-26T18:01:20.071Z,25.80
2022-08-26T18:03:47.872Z,25.62
2022-08-26T18:06:16.409Z,25.51
2022-08-26T18:08:44.850Z,25.37
2022-08-26T18:11:15.192Z,25.22
2022-08-26T18:13:47.322Z,24.85
2022-08-26T18:16:18.648Z,24.75
2022-08-26T18:18:47.616Z,24.60
2022-08-26T18:21:16.758Z,24.51
2022-08-26T18:23:45.536Z,24.40
2022-08-26T18:26:18.175Z,24.31
2022-08-26T18:28:46.195Z,24.23
2022-08-26T18:31:15.235Z,24.16
2022-08-26T18:33:44.779Z,24.11
2022-08-26T18:36:18.432Z,24.02
2022-08-26T18:38:46.828Z,23.94
2022-08-26T18:41:14.646Z,23.83
2022-08-26T18:43:42.427Z,23.75
2022-08-26T18:46:11.728Z,23.73
2022-08-26T18:48:41.179Z,23.68
2022-08-26T18:51:17.052Z,23.67
2022-08-26T18:53:44.778Z,23.56
2022-08-26T18:56:14.318Z,23.52
2022-08-26T18:58:44.416Z,23.47
2022-08-26T19:01:13.106Z,23.43
2022-08-26T19:03:40.970Z,23.38
2022-08-26T19:06:14.452Z,23.33
2022-08-26T19:08:44.603Z,23.26
2022-08-26T19:11:13.903Z,23.23
2022-08-26T19:13:42.071Z,23.20
2022-08-26T19:16:16.385Z,23.18
2022-08-26T19:18:44.104Z,23.13
2022-08-26T19:21:14.383Z,23.17
2022-08-26T19:23:42.383Z,23.18
2022-08-26T19:26:10.987Z,23.14
2022-08-26T19:28:40.813Z,23.07
2022-08-26T19:31:10.470Z,22.94
2022-08-26T19:33:39.453Z,22.85
2022-08-26T19:36:10.443Z,22.78
2022-08-26T19:38:43.218Z,22.70
2022-08-26T19:41:13.207Z,22.49
2022-08-26T19:43:40.899Z,22.26
2022-08-26T19:46:12.688Z,22.18
2022-08-26T19:48:44.247Z,22.11
2022-08-26T19:51:13.924Z,21.96
2022-08-26T19:53:43.658Z,21.63
2022-08-26T19:56:12.421Z,21.53
2022-08-26T19:58:40.592Z,21.62
2022-08-26T20:01:09.245Z,21.57
2022-08-26T20:03:37.846Z,21.59
2022-08-26T20:06:06.701Z,21.57
2022-08-26T20:08:35.718Z,21.49
2022-08-26T20:11:07.282Z,21.51
2022-08-26T20:13:34.940Z,21.02
2022-08-26T20:16:02.805Z,21.02
2022-08-26T20:18:48.350Z,21.15
2022-08-26T20:21:29.135Z,21.14
2022-08-26T20:23:59.136Z,21.12
2022-08-26T20:26:30.515Z,21.15
2022-08-26T20:28:59.323Z,21.18
2022-08-26T20:31:27.976Z,21.17
2022-08-26T20:33:56.289Z,21.24
2022-08-26T20:36:26.757Z,21.23
2022-08-26T20:38:55.281Z,21.26
2022-08-26T20:41:25.853Z,21.17
2022-08-26T20:43:55.656Z,21.15
2022-08-26T20:46:25.253Z,21.21
2022-08-26T20:48:53.330Z,21.23
2022-08-26T20:51:23.229Z,21.34
2022-08-26T20:53:51.723Z,21.34
2022-08-26T20:56:23.736Z,21.39
2022-08-26T20:58:53.155Z,21.37
2022-08-26T21:01:26.864Z,21.38
2022-08-26T21:03:56.841Z,21.36
2022-08-26T21:06:25.863Z,21.32
2022-08-26T21:08:54.519Z,21.33
2022-08-26T21:11:22.668Z,21.33
2022-08-26T21:14:06.956Z,21.34
2022-08-26T21:16:42.029Z,21.35
2022-08-26T21:19:12.566Z,21.33
2022-08-26T21:21:41.006Z,21.32
2022-08-26T21:24:08.965Z,21.32
2022-08-26T21:26:37.851Z,21.29
2022-08-26T21:29:06.673Z,21.30
2022-08-26T21:31:35.327Z,21.36
2022-08-26T21:34:04.716Z,21.36
2022-08-26T21:36:33.290Z,21.35
2022-08-26T21:39:01.543Z,21.36
2022-08-26T21:41:29.679Z,21.38
2022-08-26T21:44:00.335Z,21.36
2022-08-26T21:46:30.418Z,21.39
2022-08-26T21:49:01.082Z,21.45
2022-08-26T21:51:37.600Z,21.53
2022-08-26T21:54:10.805Z,21.53
2022-08-26T21:56:41.115Z,21.54
2022-08-26T21:59:10.086Z,21.57
2022-08-26T22:01:38.451Z,21.57
2022-08-26T22:04:08.505Z,21.54
2022-08-26T22:06:43.417Z,21.56
2022-08-26T22:09:13.384Z,21.51
2022-08-26T22:11:41.552Z,21.49
2022-08-26T22:14:09.915Z,21.50
2022-08-26T22:16:37.646Z,21.43
2022-08-26T22:19:06.170Z,21.34
2022-08-26T22:21:35.660Z,21.26
2022-08-26T22:24:07.365Z,21.18
2022-08-26T22:26:36.204Z,21.12
2022-08-26T22:29:05.129Z,21.03
2022-08-26T22:31:38.048Z,20.87
2022-08-26T22:34:08.102Z,20.84
2022-08-26T22:36:39.758Z,20.64
2022-08-26T22:39:14.683Z,20.61
2022-08-26T22:41:42.931Z,20.59
2022-08-26T22:44:11.589Z,20.55
2022-08-26T22:46:40.065Z,20.54
2022-08-26T22:49:09.496Z,20.54
2022-08-26T22:51:37.789Z,20.60
2022-08-26T22:54:05.811Z,20.41
2022-08-26T22:56:35.298Z,20.45
2022-08-26T22:59:03.149Z,20.46
2022-08-26T23:01:31.403Z,20.38
2022-08-26T23:03:59.121Z,20.32
2022-08-26T23:06:27.583Z,20.21
2022-08-26T23:08:55.218Z,20.14
2022-08-26T23:11:23.191Z,20.11
2022-08-26T23:13:52.605Z,20.06
2022-08-26T23:16:21.134Z,20.06
2022-08-26T23:18:48.920Z,20.15
2022-08-26T23:21:16.724Z,20.08
2022-08-26T23:23:45.084Z,20.06
2022-08-26T23:26:17.385Z,19.89
2022-08-26T23:28:45.388Z,19.99
2022-08-26T23:31:15.678Z,20.10
2022-08-26T23:34:01.067Z,20.14
2022-08-26T23:36:30.803Z,20.13
2022-08-26T23:38:58.638Z,20.27
2022-08-26T23:41:27.539Z,20.15
2022-08-26T23:43:55.323Z,20.18
2022-08-26T23:46:25.075Z,20.33
2022-08-26T23:48:52.741Z,20.24
2022-08-26T23:51:38.403Z,20.17
2022-08-26T23:54:06.674Z,20.14
2022-08-26T23:56:36.242Z,20.09
2022-08-26T23:59:03.979Z,20.09
